Wem, United Kingdom
Current Conditions -  °F | °C
As of 6:50 AM on Sunday 26 Oct 2014 (Local Time) from EGOS Reporting Station
Broken Clouds Broken Clouds  
Wind Chill: 55°   Ceiling: 3200
Heat Index: 55°   Visibility: 6mi
Dew Point: 45°   Wind: 17mph
Humidity: 67%   Direction: 210°SSW
Pressure: 30"   Gusts: NA
Location:  52.86°N, 2.72°W
Report Text: EGOS 260550Z AUTO 21015KT 9999 BKN032/// 13/07 Q1016
Loading
Personal Weather Stations






























Interactive Weather Map
Tropical Storm Tracking
New forecast layout! Learn more

10-Day Weather Forecast

Advertisements
Track Severe Weather on mobile